createdAt,value
2019-05-29T00:00:10.189Z,11.33
2019-05-29T00:00:46.258Z,11.33
2019-05-29T00:01:22.300Z,11.23
2019-05-29T00:01:58.216Z,10.73
2019-05-29T00:02:34.241Z,11.80
2019-05-29T00:03:10.542Z,10.97
2019-05-29T00:03:46.628Z,11.20
2019-05-29T00:04:22.495Z,11.40
2019-05-29T00:04:58.621Z,10.80
2019-05-29T00:05:34.544Z,12.10
2019-05-29T00:06:10.400Z,11.70
2019-05-29T00:06:46.399Z,11.00
2019-05-29T00:07:22.374Z,11.93
2019-05-29T00:07:58.229Z,11.70
2019-05-29T00:08:34.151Z,11.40
2019-05-29T00:09:10.218Z,11.47
2019-05-29T00:09:46.177Z,12.23
2019-05-29T00:10:22.742Z,11.57
2019-05-29T00:10:58.642Z,10.77
2019-05-29T00:11:34.484Z,11.40
2019-05-29T00:12:11.957Z,13.33
2019-05-29T00:12:48.042Z,11.77
2019-05-29T00:13:24.435Z,11.30
2019-05-29T00:14:00.310Z,11.97
2019-05-29T00:14:36.182Z,11.47
2019-05-29T00:15:12.443Z,10.90
2019-05-29T00:15:48.488Z,11.53
2019-05-29T00:16:24.417Z,11.43
2019-05-29T00:17:00.313Z,12.50
2019-05-29T00:17:37.430Z,11.60
2019-05-29T00:18:14.514Z,12.50
2019-05-29T00:18:50.627Z,12.13
2019-05-29T00:19:26.623Z,12.00
2019-05-29T00:20:02.626Z,12.43
2019-05-29T00:20:38.748Z,11.67
2019-05-29T00:21:14.841Z,12.93
2019-05-29T00:21:50.816Z,11.80
2019-05-29T00:22:26.819Z,12.83
2019-05-29T00:23:03.035Z,13.30
2019-05-29T00:23:38.922Z,12.90
2019-05-29T00:24:14.801Z,12.90
2019-05-29T00:24:50.680Z,13.07
2019-05-29T00:25:26.548Z,13.20
2019-05-29T00:26:02.409Z,12.07
2019-05-29T00:26:38.415Z,12.53
2019-05-29T00:27:15.569Z,12.80
2019-05-29T00:27:51.646Z,12.40
2019-05-29T00:28:27.537Z,12.30
2019-05-29T00:29:03.402Z,11.87
2019-05-29T00:29:39.238Z,12.73
2019-05-29T00:30:15.221Z,11.97
2019-05-29T00:30:51.139Z,12.27
2019-05-29T00:31:27.048Z,11.10
2019-05-29T00:32:02.911Z,11.23
2019-05-29T00:32:38.939Z,11.17
2019-05-29T00:33:14.859Z,11.00
2019-05-29T00:33:50.724Z,11.73
2019-05-29T00:34:26.640Z,12.40
2019-05-29T00:35:04.055Z,12.07
2019-05-29T00:35:39.922Z,11.60
2019-05-29T00:36:16.520Z,11.77
2019-05-29T00:36:52.601Z,11.80
2019-05-29T00:37:28.461Z,12.40
2019-05-29T00:38:04.373Z,11.70
2019-05-29T00:38:40.351Z,12.80
2019-05-29T00:39:16.866Z,12.00
2019-05-29T00:39:52.971Z,11.33
2019-05-29T00:40:28.914Z,11.50
2019-05-29T00:41:04.906Z,11.90
2019-05-29T00:41:40.851Z,13.17
2019-05-29T00:42:17.523Z,13.10
2019-05-29T00:42:53.483Z,13.10
2019-05-29T00:43:29.334Z,14.37
2019-05-29T00:44:05.384Z,13.60
2019-05-29T00:44:41.274Z,11.97
2019-05-29T00:45:17.682Z,12.93
2019-05-29T00:45:53.785Z,13.17
2019-05-29T00:46:29.690Z,12.93
2019-05-29T00:47:05.686Z,13.63
2019-05-29T00:47:41.575Z,12.97
2019-05-29T00:48:17.909Z,13.27
2019-05-29T00:48:53.898Z,12.93
2019-05-29T00:49:29.784Z,13.43
2019-05-29T00:50:06.072Z,12.53
2019-05-29T00:50:41.955Z,12.93
2019-05-29T00:51:17.846Z,12.23
2019-05-29T00:51:53.766Z,12.93
2019-05-29T00:52:29.640Z,13.03
2019-05-29T00:53:05.496Z,12.90
2019-05-29T00:53:41.364Z,12.53
2019-05-29T00:54:18.281Z,11.87
2019-05-29T00:54:54.436Z,12.70
2019-05-29T00:55:30.292Z,11.93
2019-05-29T00:56:06.163Z,11.90
2019-05-29T00:56:42.214Z,13.17
2019-05-29T00:57:19.036Z,13.00
2019-05-29T00:57:54.991Z,13.30
2019-05-29T00:58:30.894Z,13.20
2019-05-29T00:59:06.880Z,11.63
2019-05-29T00:59:42.720Z,12.20
2019-05-29T01:00:19.498Z,13.37
2019-05-29T01:00:55.636Z,13.83
2019-05-29T01:01:31.619Z,14.03
2019-05-29T01:02:07.518Z,13.57
2019-05-29T01:02:43.398Z,13.43
2019-05-29T01:03:19.767Z,14.07
2019-05-29T01:03:55.731Z,13.00
2019-05-29T01:04:31.629Z,13.77
2019-05-29T01:05:08.192Z,12.80
2019-05-29T01:05:44.071Z,13.20
2019-05-29T01:06:20.229Z,13.20
2019-05-29T01:06:56.159Z,13.70
2019-05-29T01:07:32.045Z,12.17
2019-05-29T01:08:08.187Z,14.17
2019-05-29T01:08:44.224Z,13.07
2019-05-29T01:09:20.785Z,14.43
2019-05-29T01:09:57.530Z,14.30
2019-05-29T01:10:33.630Z,14.83
2019-05-29T01:11:10.557Z,13.53
2019-05-29T01:11:48.407Z,12.87
2019-05-29T01:12:24.523Z,14.50
2019-05-29T01:13:00.523Z,11.90
2019-05-29T01:13:38.115Z,14.53
2019-05-29T01:14:15.143Z,13.50
2019-05-29T01:14:51.235Z,14.27
2019-05-29T01:15:27.562Z,13.93
2019-05-29T01:16:09.254Z,14.23
2019-05-29T01:16:46.211Z,13.60
2019-05-29T01:17:22.533Z,13.90
2019-05-29T01:18:01.131Z,14.07
2019-05-29T01:18:37.074Z,12.37
2019-05-29T01:19:28.106Z,15.03
2019-05-29T01:20:04.153Z,13.23
2019-05-29T01:20:40.098Z,13.20
2019-05-29T01:21:16.021Z,13.63
2019-05-29T01:21:52.102Z,12.50
2019-05-29T01:22:27.973Z,14.00
2019-05-29T01:23:03.887Z,12.87
2019-05-29T01:23:40.656Z,14.33
2019-05-29T01:24:16.535Z,13.97
2019-05-29T01:24:52.432Z,13.90
2019-05-29T01:25:28.374Z,13.90
2019-05-29T01:26:04.292Z,13.97
2019-05-29T01:26:40.133Z,15.00
2019-05-29T01:27:16.829Z,13.73
2019-05-29T01:27:52.841Z,15.00
2019-05-29T01:28:28.686Z,13.33
2019-05-29T01:29:06.182Z,14.70
2019-05-29T01:29:42.151Z,14.40
2019-05-29T01:30:19.378Z,14.77
2019-05-29T01:30:55.545Z,16.60
2019-05-29T01:31:31.465Z,15.60
2019-05-29T01:32:07.482Z,15.90
2019-05-29T01:32:43.526Z,15.83
2019-05-29T01:33:20.500Z,15.50
2019-05-29T01:33:57.093Z,16.77
2019-05-29T01:34:33.014Z,17.07
2019-05-29T01:35:08.935Z,16.03
2019-05-29T01:35:44.805Z,15.83
2019-05-29T01:36:20.667Z,17.23
2019-05-29T01:36:56.564Z,14.43
2019-05-29T01:37:32.462Z,14.23
2019-05-29T01:38:08.366Z,15.30
2019-05-29T01:38:44.407Z,15.33
2019-05-29T01:39:21.340Z,14.70
2019-05-29T01:39:57.374Z,15.23
2019-05-29T01:40:33.260Z,14.87
2019-05-29T01:41:09.582Z,13.50
2019-05-29T01:41:45.578Z,13.77
2019-05-29T01:42:21.557Z,14.40
2019-05-29T01:42:57.446Z,14.40
2019-05-29T01:43:33.350Z,13.50
2019-05-29T01:44:09.206Z,12.50
2019-05-29T01:44:45.111Z,11.60
2019-05-29T01:45:21.518Z,10.10
2019-05-29T01:45:57.623Z,9.87
2019-05-29T01:46:33.589Z,9.93
2019-05-29T01:47:10.306Z,9.57
2019-05-29T01:47:46.247Z,9.90
2019-05-29T01:48:22.152Z,9.27
2019-05-29T01:48:58.071Z,10.30
2019-05-29T01:49:33.908Z,10.10
2019-05-29T01:50:09.896Z,9.80
2019-05-29T01:50:45.927Z,10.57
2019-05-29T01:51:21.865Z,9.90
2019-05-29T01:51:57.891Z,10.10
2019-05-29T01:52:33.762Z,9.63
2019-05-29T01:53:09.626Z,9.50
2019-05-29T01:53:45.705Z,9.53
2019-05-29T01:54:21.737Z,10.07
2019-05-29T01:54:57.651Z,9.57
2019-05-29T01:55:33.584Z,10.60
2019-05-29T01:56:09.538Z,10.43
2019-05-29T01:56:45.463Z,10.10
2019-05-29T01:57:21.781Z,10.03
2019-05-29T01:57:57.854Z,10.50
2019-05-29T01:58:33.731Z,10.60
2019-05-29T01:59:09.611Z,10.43
2019-05-29T01:59:45.634Z,11.17
2019-05-29T02:00:22.130Z,10.73
2019-05-29T02:00:57.980Z,10.80
2019-05-29T02:01:33.861Z,10.57
2019-05-29T02:02:10.072Z,10.73
2019-05-29T02:02:46.088Z,11.33
2019-05-29T02:03:22.043Z,11.13
2019-05-29T02:03:57.937Z,9.90
2019-05-29T02:04:33.826Z,10.57
2019-05-29T02:05:09.820Z,10.57
2019-05-29T02:05:45.766Z,10.17
2019-05-29T02:06:21.981Z,10.23
2019-05-29T02:06:57.908Z,9.90
2019-05-29T02:07:35.278Z,10.03
2019-05-29T02:08:11.301Z,11.00
2019-05-29T02:08:47.716Z,9.80
2019-05-29T02:09:24.290Z,11.20
2019-05-29T02:10:00.877Z,10.93
2019-05-29T02:10:36.935Z,10.40
2019-05-29T02:11:12.919Z,9.40
2019-05-29T02:11:49.012Z,10.03
2019-05-29T02:12:25.088Z,9.10
2019-05-29T02:13:01.018Z,9.83
2019-05-29T02:13:36.893Z,9.00
2019-05-29T02:14:12.795Z,8.70
2019-05-29T02:14:48.696Z,9.33
2019-05-29T02:15:32.035Z,9.40
2019-05-29T02:16:02.282Z,7.83
2019-05-29T02:16:38.209Z,8.83
2019-05-29T02:17:15.655Z,9.13
2019-05-29T02:17:51.532Z,8.00
2019-05-29T02:18:27.443Z,8.80
2019-05-29T02:19:03.360Z,8.60
2019-05-29T02:19:39.267Z,9.00
2019-05-29T02:20:15.231Z,8.63
2019-05-29T02:20:51.137Z,9.37
2019-05-29T02:21:26.997Z,8.77
2019-05-29T02:22:03.277Z,9.03
2019-05-29T02:22:39.187Z,8.50
2019-05-29T02:23:15.789Z,8.33
2019-05-29T02:23:51.968Z,8.47
2019-05-29T02:24:27.997Z,8.80
2019-05-29T02:25:03.891Z,8.73
2019-05-29T02:25:39.815Z,8.97
2019-05-29T02:26:16.119Z,8.90
2019-05-29T02:26:52.154Z,8.97
2019-05-29T02:27:28.046Z,9.17
2019-05-29T02:28:03.919Z,9.20
2019-05-29T02:28:39.812Z,7.87
2019-05-29T02:29:16.405Z,8.90
2019-05-29T02:29:52.403Z,8.30
2019-05-29T02:30:30.624Z,7.70
2019-05-29T02:31:05.962Z,7.60
2019-05-29T02:31:41.828Z,8.20
2019-05-29T02:32:21.314Z,8.27
2019-05-29T02:32:57.349Z,8.67
2019-05-29T02:33:33.208Z,7.23
2019-05-29T02:34:09.093Z,8.60
2019-05-29T02:34:45.122Z,7.73
2019-05-29T02:35:22.625Z,8.07
2019-05-29T02:35:59.698Z,7.83
2019-05-29T02:36:35.584Z,8.43
2019-05-29T02:37:11.443Z,8.30
2019-05-29T02:37:47.283Z,8.33
2019-05-29T02:38:24.934Z,8.50
2019-05-29T02:39:01.019Z,8.63
2019-05-29T02:39:36.886Z,8.10
2019-05-29T02:40:12.861Z,7.40
2019-05-29T02:40:48.773Z,7.90
2019-05-29T02:41:26.210Z,8.07
2019-05-29T02:42:02.327Z,7.70
2019-05-29T02:42:38.323Z,8.03
2019-05-29T02:43:14.228Z,7.50
2019-05-29T02:43:50.121Z,7.53
2019-05-29T02:44:27.461Z,8.00
2019-05-29T02:45:03.808Z,7.87
2019-05-29T02:45:53.961Z,8.27
2019-05-29T02:46:19.315Z,7.30
2019-05-29T02:46:56.683Z,7.53
2019-05-29T02:47:32.575Z,8.27
2019-05-29T02:48:09.944Z,8.40
2019-05-29T02:48:45.835Z,7.90
2019-05-29T02:49:21.717Z,8.10
2019-05-29T02:49:59.153Z,7.17
2019-05-29T02:50:38.293Z,7.77
2019-05-29T02:51:14.214Z,8.93
2019-05-29T02:51:50.262Z,8.03
2019-05-29T02:52:26.466Z,8.10
2019-05-29T02:53:05.935Z,8.37
2019-05-29T02:53:46.010Z,9.17
2019-05-29T02:54:24.870Z,7.80
2019-05-29T02:55:01.649Z,8.93
2019-05-29T02:55:39.387Z,9.27
2019-05-29T02:56:15.464Z,9.47
2019-05-29T02:56:52.586Z,8.50
2019-05-29T02:57:29.023Z,8.93
2019-05-29T02:58:05.290Z,9.13
2019-05-29T02:58:41.327Z,8.53
2019-05-29T02:59:17.395Z,8.40
2019-05-29T02:59:53.319Z,8.43
2019-05-29T03:00:56.589Z,8.50
2019-05-29T03:01:34.956Z,8.43
2019-05-29T03:02:11.080Z,9.23
2019-05-29T03:02:47.150Z,8.50
2019-05-29T03:03:24.420Z,9.13
2019-05-29T03:04:01.460Z,7.63
2019-05-29T03:04:37.530Z,8.93
2019-05-29T03:05:13.611Z,9.03
2019-05-29T03:05:49.540Z,9.17
2019-05-29T03:06:26.253Z,8.67
2019-05-29T03:07:03.885Z,8.40
2019-05-29T03:07:42.675Z,8.97
2019-05-29T03:08:18.706Z,8.33
2019-05-29T03:08:54.699Z,9.70
2019-05-29T03:09:32.517Z,8.83
2019-05-29T03:10:09.278Z,9.40
2019-05-29T03:10:45.150Z,9.70
2019-05-29T03:11:22.868Z,9.43
2019-05-29T03:12:00.292Z,9.33
2019-05-29T03:12:36.407Z,8.70
2019-05-29T03:13:12.424Z,8.33
2019-05-29T03:13:50.769Z,8.60
2019-05-29T03:14:29.639Z,9.17
2019-05-29T03:15:06.296Z,8.83
2019-05-29T03:15:42.288Z,9.00
2019-05-29T03:16:18.227Z,9.23
2019-05-29T03:16:54.205Z,8.63
2019-05-29T03:17:31.813Z,8.80
2019-05-29T03:18:07.819Z,8.03
2019-05-29T03:18:43.711Z,9.33
2019-05-29T03:19:19.597Z,8.70
2019-05-29T03:19:57.063Z,9.40
2019-05-29T03:20:34.426Z,9.13
2019-05-29T03:21:14.777Z,9.50
2019-05-29T03:21:50.645Z,10.60
2019-05-29T03:22:28.548Z,10.70
2019-05-29T03:23:04.503Z,9.93
2019-05-29T03:23:40.418Z,10.30
2019-05-29T03:24:16.385Z,9.23
2019-05-29T03:24:52.317Z,8.97
2019-05-29T03:25:28.474Z,11.10
2019-05-29T03:26:05.254Z,11.63
2019-05-29T03:26:41.128Z,10.10
2019-05-29T03:27:17.051Z,10.40
2019-05-29T03:27:53.057Z,10.23
2019-05-29T03:28:29.958Z,10.10
2019-05-29T03:29:06.293Z,9.07
2019-05-29T03:29:42.185Z,9.87
2019-05-29T03:30:18.135Z,9.13
2019-05-29T03:30:54.187Z,8.93
2019-05-29T03:31:36.858Z,9.50
2019-05-29T03:32:13.723Z,9.30
2019-05-29T03:32:48.860Z,8.33
2019-05-29T03:33:28.517Z,8.60
2019-05-29T03:34:02.713Z,7.77
2019-05-29T03:34:46.294Z,7.47
2019-05-29T03:35:18.992Z,9.20
2019-05-29T03:35:54.970Z,9.37
2019-05-29T03:36:39.555Z,8.77
2019-05-29T03:37:10.075Z,9.77
2019-05-29T03:37:45.937Z,10.30
2019-05-29T03:38:21.826Z,11.37
2019-05-29T03:38:57.729Z,10.23
2019-05-29T03:39:34.590Z,9.30
2019-05-29T03:40:10.732Z,8.67
2019-05-29T03:40:46.762Z,7.97
2019-05-29T03:41:22.838Z,7.53
2019-05-29T03:41:58.765Z,8.33
2019-05-29T03:42:34.668Z,7.20
2019-05-29T03:43:10.576Z,8.13
2019-05-29T03:43:46.482Z,7.93
2019-05-29T03:44:22.521Z,8.33
2019-05-29T03:44:58.488Z,7.73
2019-05-29T03:45:36.248Z,8.53
2019-05-29T03:46:29.254Z,9.10
2019-05-29T03:46:50.433Z,8.63
2019-05-29T03:47:26.891Z,9.07
2019-05-29T03:48:03.353Z,9.33
2019-05-29T03:48:39.217Z,9.50
2019-05-29T03:49:15.125Z,8.90
2019-05-29T03:49:51.035Z,9.60
2019-05-29T03:50:28.926Z,8.90
2019-05-29T03:51:04.592Z,9.27
2019-05-29T03:51:40.524Z,9.43
2019-05-29T03:52:16.509Z,9.33
2019-05-29T03:52:52.414Z,10.10
2019-05-29T03:53:29.246Z,9.73
2019-05-29T03:54:05.429Z,9.50
2019-05-29T03:54:41.318Z,9.70
2019-05-29T03:55:17.229Z,9.17
2019-05-29T03:55:53.325Z,10.63
2019-05-29T03:56:30.642Z,9.27
2019-05-29T03:57:06.670Z,9.20
2019-05-29T03:57:42.617Z,9.70
2019-05-29T03:58:18.565Z,9.80
2019-05-29T03:58:54.558Z,11.07
2019-05-29T03:59:30.725Z,9.20
2019-05-29T04:00:07.190Z,10.30
2019-05-29T04:00:46.748Z,10.23
2019-05-29T04:01:20.905Z,9.93
2019-05-29T04:01:56.762Z,9.30
2019-05-29T04:02:33.270Z,10.13
2019-05-29T04:03:09.899Z,10.13
2019-05-29T04:03:45.827Z,10.10
2019-05-29T04:04:21.731Z,9.50
2019-05-29T04:04:57.621Z,10.47
2019-05-29T04:05:35.271Z,10.30
2019-05-29T04:06:11.218Z,9.70
2019-05-29T04:06:47.581Z,10.50
2019-05-29T04:07:23.642Z,9.60
2019-05-29T04:07:59.480Z,10.47
2019-05-29T04:08:35.846Z,9.53
2019-05-29T04:09:13.074Z,9.73
2019-05-29T04:09:48.944Z,10.23
2019-05-29T04:10:34.183Z,11.17
2019-05-29T04:11:09.368Z,10.60
2019-05-29T04:11:45.355Z,10.30
2019-05-29T04:12:21.368Z,10.53
2019-05-29T04:12:57.336Z,10.60
2019-05-29T04:13:34.126Z,11.30
2019-05-29T04:14:10.887Z,9.67
2019-05-29T04:14:46.778Z,12.20
2019-05-29T04:15:22.660Z,11.47
2019-05-29T04:15:58.971Z,11.23
2019-05-29T04:16:52.399Z,10.60
2019-05-29T04:17:15.877Z,11.63
2019-05-29T04:17:51.762Z,10.30
2019-05-29T04:18:29.685Z,11.43
2019-05-29T04:19:06.746Z,11.85
2019-05-29T04:19:43.059Z,10.87
2019-05-29T04:20:19.027Z,11.03
2019-05-29T04:20:54.920Z,10.63
2019-05-29T04:21:34.028Z,9.30
2019-05-29T04:22:12.839Z,10.20
2019-05-29T04:22:51.027Z,10.80
2019-05-29T04:23:29.983Z,10.57
2019-05-29T04:24:08.050Z,10.43
2019-05-29T04:24:43.998Z,10.37
2019-05-29T04:25:21.960Z,10.47
2019-05-29T04:25:58.609Z,10.23
2019-05-29T04:26:39.968Z,11.17
2019-05-29T04:27:16.368Z,10.03
2019-05-29T04:27:53.319Z,10.07
2019-05-29T04:28:30.394Z,11.50
2019-05-29T04:29:06.772Z,10.17
2019-05-29T04:29:43.086Z,11.13
2019-05-29T04:30:19.073Z,10.27
2019-05-29T04:30:55.040Z,10.90
2019-05-29T04:31:32.536Z,10.63
2019-05-29T04:32:08.678Z,12.50
2019-05-29T04:32:44.702Z,11.40
2019-05-29T04:33:20.651Z,11.50
2019-05-29T04:33:56.561Z,11.33
2019-05-29T04:34:34.291Z,12.10
2019-05-29T04:35:10.331Z,11.00
2019-05-29T04:35:46.228Z,11.67
2019-05-29T04:36:22.049Z,10.70
2019-05-29T04:36:57.934Z,11.83
2019-05-29T04:37:34.367Z,11.77
2019-05-29T04:38:10.357Z,11.00
2019-05-29T04:38:46.227Z,12.00
2019-05-29T04:39:22.262Z,12.23
2019-05-29T04:39:58.380Z,11.43
2019-05-29T04:40:35.047Z,12.13
2019-05-29T04:41:11.845Z,12.00
2019-05-29T04:41:49.434Z,12.07
2019-05-29T04:42:28.904Z,12.40
2019-05-29T04:43:04.794Z,13.43
2019-05-29T04:43:40.842Z,13.55
2019-05-29T04:44:16.719Z,14.33
2019-05-29T04:44:54.112Z,14.43
2019-05-29T04:45:33.044Z,11.90
2019-05-29T04:46:08.967Z,14.30
2019-05-29T04:46:44.876Z,12.73
2019-05-29T04:47:20.721Z,12.60
2019-05-29T04:47:56.632Z,13.80
2019-05-29T04:48:34.026Z,12.97
2019-05-29T04:49:10.174Z,13.60
2019-05-29T04:49:46.026Z,12.60
2019-05-29T04:50:22.152Z,12.10
2019-05-29T04:50:58.156Z,12.43
2019-05-29T04:51:35.428Z,12.60
2019-05-29T04:52:11.585Z,11.90
2019-05-29T04:52:47.476Z,14.93
2019-05-29T04:53:23.352Z,14.07
2019-05-29T04:53:59.201Z,13.30
2019-05-29T04:54:37.628Z,13.33
2019-05-29T04:55:14.032Z,12.57
2019-05-29T04:55:49.985Z,12.50
2019-05-29T04:56:25.955Z,13.70
2019-05-29T04:57:01.868Z,11.17
2019-05-29T04:57:39.159Z,12.40
2019-05-29T04:58:15.434Z,12.57
2019-05-29T04:58:51.343Z,11.93
2019-05-29T04:59:27.262Z,12.23
2019-05-29T05:00:03.080Z,13.77
2019-05-29T05:00:39.461Z,11.80
2019-05-29T05:01:15.456Z,10.33
2019-05-29T05:01:51.447Z,12.30
2019-05-29T05:02:27.336Z,13.30
2019-05-29T05:03:03.219Z,12.03
2019-05-29T05:03:39.480Z,12.13
2019-05-29T05:04:15.460Z,11.80
2019-05-29T05:04:51.380Z,12.10
2019-05-29T05:05:27.511Z,12.93
2019-05-29T05:06:03.436Z,12.70
2019-05-29T05:06:39.566Z,13.10
2019-05-29T05:07:15.512Z,12.83
2019-05-29T05:07:51.384Z,13.60
2019-05-29T05:08:27.294Z,12.70
2019-05-29T05:09:03.269Z,13.53
2019-05-29T05:09:39.656Z,12.97
2019-05-29T05:10:29.224Z,11.40
2019-05-29T05:11:05.436Z,11.93
2019-05-29T05:11:41.583Z,12.07
2019-05-29T05:12:17.511Z,12.17
2019-05-29T05:12:53.669Z,12.67
2019-05-29T05:13:30.002Z,12.53
2019-05-29T05:14:06.061Z,12.70
2019-05-29T05:14:41.988Z,12.87
2019-05-29T05:15:18.023Z,12.43
2019-05-29T05:15:55.277Z,12.33
2019-05-29T05:16:31.662Z,12.47
2019-05-29T05:17:07.840Z,12.57
2019-05-29T05:17:43.877Z,11.53
2019-05-29T05:18:19.716Z,11.40
2019-05-29T05:18:55.624Z,12.23
2019-05-29T05:19:31.854Z,12.70
2019-05-29T05:20:09.793Z,12.80
2019-05-29T05:20:45.679Z,11.27
2019-05-29T05:21:22.987Z,11.40
2019-05-29T05:21:58.833Z,11.73
2019-05-29T05:22:35.941Z,11.17
2019-05-29T05:23:12.387Z,10.63
2019-05-29T05:23:48.278Z,12.00
2019-05-29T05:24:24.135Z,10.80
2019-05-29T05:25:00.153Z,11.27
2019-05-29T05:25:36.532Z,11.33
2019-05-29T05:26:12.467Z,11.73
2019-05-29T05:26:54.401Z,11.10
2019-05-29T05:27:30.282Z,10.70
2019-05-29T05:28:06.524Z,12.57
2019-05-29T05:28:45.218Z,11.87
2019-05-29T05:29:20.225Z,12.00
2019-05-29T05:29:56.113Z,12.13
2019-05-29T05:30:32.362Z,12.03
2019-05-29T05:31:08.375Z,12.30
2019-05-29T05:31:44.282Z,12.50
2019-05-29T05:32:20.288Z,13.17
2019-05-29T05:32:56.139Z,11.80
2019-05-29T05:33:32.435Z,12.57
2019-05-29T05:34:08.518Z,12.23
2019-05-29T05:34:44.377Z,11.30
2019-05-29T05:35:20.290Z,11.97
2019-05-29T05:35:59.846Z,12.50
2019-05-29T05:36:36.784Z,12.07
2019-05-29T05:37:12.914Z,11.90
2019-05-29T05:37:48.935Z,10.97
2019-05-29T05:38:24.871Z,12.30
2019-05-29T05:39:00.810Z,11.50
2019-05-29T05:39:37.341Z,11.77
2019-05-29T05:40:13.709Z,12.53
2019-05-29T05:40:49.838Z,10.73
2019-05-29T05:41:25.815Z,12.43
2019-05-29T05:42:01.730Z,11.83
2019-05-29T05:42:37.619Z,11.00
2019-05-29T05:43:23.766Z,11.97
2019-05-29T05:43:51.828Z,11.50
2019-05-29T05:44:27.672Z,12.07
2019-05-29T05:45:05.329Z,10.63
2019-05-29T05:45:41.334Z,12.77
2019-05-29T05:46:17.480Z,10.80
2019-05-29T05:46:53.643Z,11.30
2019-05-29T05:47:44.929Z,11.50
2019-05-29T05:48:07.184Z,10.87
2019-05-29T05:48:43.159Z,10.73
2019-05-29T05:49:19.049Z,10.90
2019-05-29T05:49:54.943Z,10.27
2019-05-29T05:50:31.114Z,9.57
2019-05-29T05:51:07.062Z,9.60
2019-05-29T05:51:44.796Z,10.77
2019-05-29T05:52:20.912Z,9.30
2019-05-29T05:52:59.700Z,9.63
2019-05-29T05:53:35.642Z,9.97
2019-05-29T05:54:11.583Z,10.90
2019-05-29T05:54:47.610Z,9.90
2019-05-29T05:55:23.530Z,9.70
2019-05-29T05:55:59.402Z,11.07
2019-05-29T05:56:36.216Z,10.07
2019-05-29T05:57:12.093Z,9.97
2019-05-29T05:57:47.997Z,10.33
2019-05-29T05:58:23.874Z,9.70
2019-05-29T05:58:59.851Z,10.73
2019-05-29T05:59:35.842Z,11.53
2019-05-29T06:00:12.321Z,10.07
2019-05-29T06:00:48.346Z,10.93
2019-05-29T06:01:24.292Z,11.67
2019-05-29T06:02:00.161Z,10.10
2019-05-29T06:02:36.273Z,10.30
2019-05-29T06:03:13.796Z,9.73
2019-05-29T06:03:49.688Z,9.80
2019-05-29T06:04:27.153Z,10.20
2019-05-29T06:05:02.983Z,10.37
2019-05-29T06:05:40.105Z,9.33
2019-05-29T06:06:16.264Z,10.27
2019-05-29T06:06:52.176Z,10.50
2019-05-29T06:07:28.041Z,12.00
2019-05-29T06:08:04.018Z,11.27
2019-05-29T06:08:40.252Z,11.07
2019-05-29T06:09:16.170Z,12.07
2019-05-29T06:09:52.163Z,11.50
2019-05-29T06:10:28.032Z,12.27
2019-05-29T06:11:03.893Z,11.70
2019-05-29T06:11:40.381Z,12.90
2019-05-29T06:12:16.473Z,12.50
2019-05-29T06:12:52.362Z,12.10
2019-05-29T06:13:28.242Z,11.23
2019-05-29T06:14:04.096Z,12.63
2019-05-29T06:14:40.645Z,11.23
2019-05-29T06:15:16.785Z,12.90
2019-05-29T06:15:52.649Z,11.77
2019-05-29T06:16:28.819Z,11.20
2019-05-29T06:17:04.737Z,12.63
2019-05-29T06:17:40.773Z,10.67
2019-05-29T06:18:21.466Z,12.80
2019-05-29T06:18:54.635Z,12.20
2019-05-29T06:19:30.590Z,11.90
2019-05-29T06:20:06.861Z,12.30
2019-05-29T06:20:43.215Z,12.37
2019-05-29T06:21:19.271Z,12.57
2019-05-29T06:21:55.144Z,13.07
2019-05-29T06:22:30.993Z,12.40
2019-05-29T06:23:06.967Z,12.37
2019-05-29T06:23:43.567Z,12.67
2019-05-29T06:24:19.816Z,13.53
2019-05-29T06:24:55.708Z,12.60
2019-05-29T06:25:33.604Z,12.93
2019-05-29T06:26:11.307Z,12.97
2019-05-29T06:26:47.351Z,13.10
2019-05-29T06:27:27.212Z,13.60
2019-05-29T06:28:03.111Z,12.70
2019-05-29T06:28:43.329Z,11.73
2019-05-29T06:29:19.539Z,13.53
2019-05-29T06:29:55.508Z,12.73
2019-05-29T06:30:31.477Z,12.60
2019-05-29T06:31:07.487Z,11.37
2019-05-29T06:31:43.487Z,12.97
2019-05-29T06:32:19.641Z,13.33
2019-05-29T06:32:57.744Z,12.90
2019-05-29T06:33:33.551Z,13.17
2019-05-29T06:34:09.439Z,12.57
2019-05-29T06:34:45.265Z,11.70
2019-05-29T06:35:21.495Z,11.17
2019-05-29T06:35:57.425Z,10.80
2019-05-29T06:36:33.575Z,10.27
2019-05-29T06:37:09.444Z,9.80
2019-05-29T06:37:45.313Z,10.03
2019-05-29T06:38:21.250Z,9.90
2019-05-29T06:38:57.198Z,10.87
2019-05-29T06:39:33.500Z,8.67
2019-05-29T06:40:11.473Z,9.83
2019-05-29T06:40:47.466Z,8.37
2019-05-29T06:41:23.561Z,8.47
2019-05-29T06:41:59.448Z,9.90
2019-05-29T06:42:35.691Z,8.90
2019-05-29T06:43:30.633Z,11.60
2019-05-29T06:44:06.822Z,10.70
2019-05-29T06:44:44.915Z,10.90
2019-05-29T06:45:23.450Z,10.67
2019-05-29T06:45:59.453Z,10.23
2019-05-29T06:46:38.240Z,9.83
2019-05-29T06:47:14.441Z,11.00
2019-05-29T06:47:50.329Z,11.20
2019-05-29T06:48:57.537Z,11.10
2019-05-29T06:49:05.276Z,10.73
2019-05-29T06:49:44.373Z,9.97
2019-05-29T06:50:20.444Z,9.67
2019-05-29T06:50:57.625Z,10.80
2019-05-29T06:51:35.108Z,9.77
2019-05-29T06:52:11.229Z,9.80
2019-05-29T06:52:47.781Z,9.73
2019-05-29T06:53:26.595Z,10.10
2019-05-29T06:54:02.550Z,9.83
2019-05-29T06:54:39.983Z,9.77
2019-05-29T06:55:16.053Z,9.87
2019-05-29T06:55:54.731Z,9.47
2019-05-29T06:56:30.503Z,9.30
2019-05-29T06:57:06.494Z,8.50
2019-05-29T06:57:44.415Z,9.60
2019-05-29T06:58:20.671Z,10.40
2019-05-29T06:58:56.572Z,9.03
2019-05-29T06:59:32.445Z,9.50
2019-05-29T07:00:08.581Z,9.03
2019-05-29T07:00:44.899Z,9.03
2019-05-29T07:01:20.795Z,8.33
2019-05-29T07:01:56.681Z,9.23
2019-05-29T07:02:32.558Z,8.67
2019-05-29T07:03:08.585Z,9.20
2019-05-29T07:03:44.485Z,9.40
2019-05-29T07:04:20.344Z,8.83
2019-05-29T07:04:56.191Z,8.00
2019-05-29T07:05:32.416Z,8.70
2019-05-29T07:06:08.438Z,8.40
2019-05-29T07:06:44.767Z,9.23
2019-05-29T07:07:20.965Z,8.90
2019-05-29T07:07:56.886Z,9.60
2019-05-29T07:08:38.996Z,8.80
2019-05-29T07:09:10.556Z,9.03
2019-05-29T07:09:47.182Z,9.23
2019-05-29T07:10:25.457Z,9.73
2019-05-29T07:11:01.450Z,8.90
2019-05-29T07:11:37.448Z,8.90
2019-05-29T07:12:15.093Z,8.80
2019-05-29T07:12:50.981Z,8.80
2019-05-29T07:13:26.903Z,9.97
2019-05-29T07:14:02.793Z,9.13
2019-05-29T07:14:38.751Z,8.07
2019-05-29T07:15:14.636Z,8.87
2019-05-29T07:15:50.707Z,8.27
2019-05-29T07:16:43.271Z,9.37
2019-05-29T07:17:04.298Z,9.97
2019-05-29T07:17:40.424Z,9.20
2019-05-29T07:18:16.423Z,8.67
2019-05-29T07:19:23.995Z,9.67
2019-05-29T07:19:47.557Z,9.60
2019-05-29T07:20:07.821Z,7.97
2019-05-29T07:20:44.799Z,8.77
2019-05-29T07:21:20.857Z,8.37
2019-05-29T07:21:56.664Z,8.60
2019-05-29T07:22:32.486Z,8.70
2019-05-29T07:23:08.334Z,8.60
2019-05-29T07:23:46.122Z,8.13
2019-05-29T07:24:21.855Z,8.30
2019-05-29T07:24:57.837Z,9.60
2019-05-29T07:25:33.686Z,8.20
2019-05-29T07:26:09.593Z,8.80
2019-05-29T07:26:45.572Z,8.30
2019-05-29T07:27:21.468Z,8.13
2019-05-29T07:27:57.335Z,8.60
2019-05-29T07:28:33.324Z,8.80
2019-05-29T07:29:11.149Z,8.10
2019-05-29T07:29:47.429Z,9.43
2019-05-29T07:30:23.636Z,8.60
2019-05-29T07:31:03.129Z,8.80
2019-05-29T07:31:37.467Z,9.20
2019-05-29T07:32:13.424Z,9.40
2019-05-29T07:32:57.312Z,9.33
2019-05-29T07:33:27.775Z,9.00
2019-05-29T07:34:03.663Z,8.47
2019-05-29T07:35:02.065Z,8.80
2019-05-29T07:35:25.851Z,8.67
2019-05-29T07:36:03.141Z,8.13
2019-05-29T07:36:40.031Z,9.17
2019-05-29T07:37:16.111Z,8.80
2019-05-29T07:37:52.053Z,9.27
2019-05-29T07:38:27.887Z,9.03
2019-05-29T07:39:05.088Z,9.13
2019-05-29T07:39:41.434Z,8.90
2019-05-29T07:40:17.522Z,9.10
2019-05-29T07:40:53.449Z,8.50
2019-05-29T07:41:29.310Z,8.77
2019-05-29T07:42:05.132Z,8.97
2019-05-29T07:42:45.287Z,9.23
2019-05-29T07:43:18.700Z,9.97
2019-05-29T07:43:55.131Z,9.63
2019-05-29T07:44:30.982Z,9.37
2019-05-29T07:45:08.364Z,8.97
2019-05-29T07:45:46.076Z,9.40
2019-05-29T07:46:22.237Z,9.40
2019-05-29T07:46:58.248Z,9.03
2019-05-29T07:47:34.284Z,8.93
2019-05-29T07:48:10.175Z,10.30
2019-05-29T07:48:48.033Z,9.50
2019-05-29T07:49:38.093Z,8.40
2019-05-29T07:50:01.805Z,9.93
2019-05-29T07:50:38.032Z,9.63
2019-05-29T07:51:13.988Z,8.43
2019-05-29T07:51:49.833Z,9.47
2019-05-29T07:52:25.719Z,9.10
2019-05-29T07:53:01.720Z,9.40
2019-05-29T07:53:40.113Z,8.77
2019-05-29T07:54:16.054Z,9.63
2019-05-29T07:54:51.938Z,7.97
2019-05-29T07:55:27.801Z,8.60
2019-05-29T07:56:03.797Z,9.43